• Join FlightAware (Why Join?)
  • Login
  • US Flag 
01:18PM EDT


 

Airport Tracker/Info


-or-


 

Live Flight TrackerFlight Track Log ✈ UAL6025 ✈ 30-Oct-2013 ✈ KIAD - KTUL

Flight Track Log - Related Links

Times and Time Zones

All times are in EDT time to prevent confusion due to time zone crossing. See the UAL6025 flight status page for this flight to view local times or setup timezone preferences in your user account.

Time Position Orientation Groundspeed Altitude Reporting Facility
EDT Latitude Longitude Course Direction KTS MPH feet Rate Location/Type
06:57PM 38.9167 -77.5167 238° Southwest 184 212 2,100  Level Potomac TRACON
07:00PM 38.7592 -77.5911 200° South 259 298 8,000 2,280 Climbing Washington Center
07:01PM 38.6875 -77.6317 204° Southwest 276 318 10,200 1,740 Climbing Washington Center
07:02PM 38.6014 -77.6797 204° Southwest 306 352 11,600 1,620 Climbing Washington Center
07:03PM 38.8979 -78.1685 238° Southwest  Level Estimated
07:03PM 38.5128 -77.7303 204° Southwest 337 388 13,500  Level Washington Center
07:04PM 38.4528 -77.8292 232° Southwest 342 394 15,400 1,740 Climbing Washington Center
07:05PM 38.3986 -77.9364 237° Southwest 350 403 17,100 1,560 Climbing Washington Center
07:06PM 38.3444 -78.0406 236° Southwest 360 414 18,600 1,560 Climbing Washington Center
07:07PM 38.2878 -78.1497 237° Southwest 365 420 20,300 1,680 Climbing Washington Center
07:08PM 38.2292 -78.2561 235° Southwest 370 426 22,000 1,620 Climbing Washington Center
07:09PM 38.1747 -78.3625 237° Southwest 370 426 23,700 1,680 Climbing Washington Center
07:10PM 38.1200 -78.4686 237° Southwest 370 426 25,400 1,620 Climbing Washington Center
07:11PM 38.0781 -78.5672 242° Southwest 358 412 26,900 1,560 Climbing Washington Center
07:12PM 38.0047 -78.6567 224° Southwest 358 412 28,500 1,500 Climbing Washington Center
07:13PM 37.9317 -78.7431 223° Southwest 358 412 30,000 1,500 Climbing Washington Center
07:14PM 37.8500 -78.8344 221° Southwest 365 420 31,600 1,440 Climbing Washington Center
07:15PM 37.7725 -78.9178 220° Southwest 365 420 32,900 1,320 Climbing Washington Center
07:16PM 37.6994 -79.0011 222° Southwest 365 420 34,200 1,080 Climbing Washington Center
07:17PM 37.6242 -79.0817 220° Southwest 365 420 35,100 780 Climbing Washington Center
07:18PM 37.5675 -79.1603 228° Southwest 360 414 35,900 420 Climbing Washington Center
07:19PM 37.5283 -79.2817 248° West 340 391 36,000  Climbing Washington Center
07:20PM 37.4892 -79.4000 247° West 363 418 36,000  Level Washington Center
07:21PM 37.4497 -79.5211 248° West 375 432 36,000  Level Washington Center
07:22PM 37.4061 -79.6417 246° West 397 457 36,000  Level Washington Center
07:23PM 37.3642 -79.7675 247° West 397 457 36,000  Level Washington Center
07:24PM 37.2903 -79.9850 247° West 401 461 36,000  Level Atlanta Center
07:25PM 37.2506 -80.1097 248° West 401 461 36,000  Level Atlanta Center
07:26PM 37.2067 -80.2369 247° West 401 461 36,000  Level Atlanta Center
07:27PM 37.1589 -80.3772 247° West 401 461 36,000  Level Atlanta Center
07:28PM 37.1167 -80.5042 247° West 401 461 36,000  Level Atlanta Center
07:29PM 37.0744 -80.6311 247° West 401 461 36,000  Level Atlanta Center
07:30PM 37.0319 -80.7550 247° West 401 461 36,000  Level Atlanta Center
07:31PM 36.9931 -80.8658 246° West 401 461 36,000  Level Atlanta Center
07:32PM 36.9544 -80.9817 247° West 387 445 36,000  Level Atlanta Center
07:33PM 36.9114 -81.0975 245° Southwest 376 433 36,000  Level Atlanta Center
07:34PM 36.8725 -81.2183 248° West 376 433 36,000  Level Atlanta Center
07:35PM 36.8275 -81.3444 246° West 376 433 36,000  Level Atlanta Center
07:36PM 36.7861 -81.4597 246° West 371 427 36,000  Level Atlanta Center
07:37PM 36.7528 -81.5644 248° West 371 427 36,000  Level Atlanta Center
07:38PM 36.7114 -81.6850 247° West 382 440 36,000  Level Atlanta Center
07:39PM 36.6678 -81.8053 246° West 382 440 36,000  Level Atlanta Center
07:40PM 36.6261 -81.9228 246° West 376 433 36,000  Level Atlanta Center
07:41PM 36.5864 -82.0375 247° West 376 433 36,000  Level Atlanta Center
07:42PM 36.5422 -82.1550 245° Southwest 376 433 36,000  Level Atlanta Center
07:43PM 36.5003 -82.2747 246° West 381 438 36,000  Level Atlanta Center
07:44PM 36.4519 -82.4050 245° Southwest 381 438 36,000  Level Atlanta Center
07:45PM 36.4078 -82.5297 246° West 381 438 36,000  Level Atlanta Center
07:46PM 36.3633 -82.6517 246° West 386 444 36,000  Level Atlanta Center
07:47PM 36.3186 -82.7761 246° West 386 444 36,000  Level Atlanta Center
07:48PM 36.2739 -82.8953 245° Southwest 386 444 36,000  Level Atlanta Center
07:49PM 36.2292 -83.0194 246° West 386 444 36,000  Level Atlanta Center
07:50PM 36.1842 -83.1408 245° Southwest 386 444 36,000  Level Atlanta Center
07:51PM 36.1392 -83.2647 246° West 391 450 36,000  Level Atlanta Center
07:52PM 36.0942 -83.3861 245° Southwest 391 450 36,000  Level Atlanta Center
07:53PM 36.0467 -83.5097 245° Southwest 396 456 36,000  Level Atlanta Center
07:54PM 36.0094 -83.6153 246° West 396 456 36,000  Level Atlanta Center
07:55PM 35.9661 -83.7333 246° West 386 444 36,000  Level Atlanta Center
07:56PM 35.9225 -83.8489 245° Southwest 380 437 36,000  Level Atlanta Center
07:57PM 35.9103 -83.9669 263° West 375 432 36,000  Level Atlanta Center
07:58PM 35.9206 -84.0875 276° West 352 405 36,000  Level Atlanta Center
07:59PM 35.9331 -84.2028 278° West 347 399 36,000  Level Atlanta Center
08:00PM 35.9433 -84.3208 276° West 347 399 36,000  Level Atlanta Center
08:01PM 35.9556 -84.4364 277° West 347 399 36,000  Level Atlanta Center
08:02PM 35.9656 -84.5544 276° West 347 399 36,000  Level Atlanta Center
08:03PM 35.9775 -84.6725 277° West 352 405 36,000  Level Atlanta Center
08:04PM 35.9892 -84.7906 277° West 352 405 36,000  Level Atlanta Center
08:05PM 36.0031 -84.9139 278° West 357 411 36,000  Level Atlanta Center
08:07PM 36.0189 -85.1706 274° West 360 414 36,000  Level Memphis Center
08:08PM 36.0300 -85.2906 277° West 360 414 36,000  Level Memphis Center
08:09PM 36.0369 -85.4081 274° West 360 414 36,000  Level Memphis Center
08:10PM 36.0478 -85.5281 276° West 360 414 36,000  Level Memphis Center
08:11PM 36.0564 -85.6433 275° West 355 409 36,000  Level Memphis Center
08:12PM 36.0650 -85.7633 275° West 350 403 36,000  Level Memphis Center
08:13PM 36.0756 -85.8808 276° West 350 403 36,000  Level Memphis Center
08:14PM 36.0839 -85.9961 275° West 344 396 36,000  Level Memphis Center
08:15PM 36.0942 -86.1111 276° West 344 396 36,000  Level Memphis Center
08:16PM 36.1003 -86.2289 274° West 344 396 36,000  Level Memphis Center
08:17PM 36.1103 -86.3467 276° West 344 396 36,000  Level Memphis Center
08:18PM 36.1183 -86.4617 275° West 344 396 36,000  Level Memphis Center
08:19PM 36.1261 -86.5822 275° West 351 404 36,000  Level Memphis Center
08:20PM 36.1336 -86.6925 275° West 351 404 36,000  Level Memphis Center
08:21PM 36.1350 -86.8131 271° West 346 398 36,000  Level Memphis Center
08:22PM 36.1342 -86.9364 270° West 353 406 36,000  Level Memphis Center
08:23PM 36.1378 -87.0700 272° West 353 406 36,000  Level Memphis Center
08:24PM 36.1389 -87.1908 271° West 358 412 36,000  Level Memphis Center
08:25PM 36.1419 -87.3114 272° West 358 412 36,000  Level Memphis Center
08:26PM 36.1428 -87.4322 271° West 358 412 36,000  Level Memphis Center
08:27PM 36.1436 -87.5531 271° West 358 412 36,000  Level Memphis Center
08:28PM 36.1442 -87.6736 270° West 358 412 36,000  Level Memphis Center
08:29PM 36.1444 -87.7944 270° West 358 412 36,000  Level Memphis Center
08:30PM 36.1447 -87.9128 270° West 351 404 36,000  Level Memphis Center
08:31PM 36.1450 -88.0258 270° West 351 404 36,000  Level Memphis Center
08:32PM 36.1450 -88.1414 270° West 351 404 36,000  Level Memphis Center
08:33PM 36.1450 -88.2647 270° West 346 398 36,000  Level Memphis Center
08:34PM 36.1450 -88.3856 270° West 352 405 36,000  Level Memphis Center
08:35PM 36.1447 -88.5064 270° West 352 405 36,000  Level Memphis Center
08:36PM 36.1444 -88.6325 270° West 357 411 36,000  Level Memphis Center
08:37PM 36.1419 -88.7533 269° West 357 411 36,000  Level Memphis Center
08:38PM 36.1414 -88.8767 270° West 357 411 36,000  Level Memphis Center
08:39PM 36.1386 -89.0025 268° West 362 417 36,000  Level Memphis Center
08:40PM 36.1358 -89.1364 269° West 362 417 36,000  Level Memphis Center
08:41PM 36.1328 -89.2622 268° West 367 422 36,000  Level Memphis Center
08:42PM 36.1319 -89.3881 270° West 367 422 36,000  Level Memphis Center
08:43PM 36.1306 -89.5142 269° West 367 422 36,000  Level Memphis Center
08:44PM 36.1314 -89.6400 271° West 367 422 36,000  Level Memphis Center
08:45PM 36.1300 -89.7633 269° West 367 422 36,000  Level Memphis Center
08:46PM 36.1286 -89.8867 269° West 367 422 36,000  Level Memphis Center
08:47PM 36.1247 -90.0100 268° West 367 422 36,000  Level Memphis Center
08:48PM 36.1250 -90.1361 270° West 367 422 36,000  Level Memphis Center
08:49PM 36.1231 -90.2567 269° West 362 417 36,000  Level Memphis Center
08:50PM 36.1211 -90.3800 269° West 362 417 36,000  Level Memphis Center
08:51PM 36.1169 -90.5033 268° West 362 417 36,000  Level Memphis Center
08:52PM 36.1144 -90.6242 269° West 362 417 36,000  Level Memphis Center
08:53PM 36.1122 -90.7450 269° West 362 417 36,000  Level Memphis Center
08:54PM 36.1097 -90.8656 269° West 362 417 36,000  Level Memphis Center
08:55PM 36.1111 -90.9864 271° West 357 411 36,000  Level Memphis Center
08:56PM 36.1125 -91.1019 271° West 352 405 36,000  Level Memphis Center
08:57PM 36.1161 -91.2050 273° West 347 399 36,000  Level Memphis Center
08:58PM 36.1236 -91.3231 275° West 347 399 36,000  Level Memphis Center
08:59PM 36.1247 -91.4389 271° West 347 399 36,000  Level Memphis Center
09:00PM 36.1278 -91.5544 272° West 347 399 36,000  Level Memphis Center
09:01PM 36.1308 -91.6778 272° West 347 399 36,000  Level Memphis Center
09:02PM 36.1378 -91.7989 274° West 347 399 36,000  Level Memphis Center
09:03PM 36.1364 -91.9169 269° West 347 399 36,000  Level Memphis Center
09:04PM 36.1433 -92.0328 274° West 347 399 36,000  Level Memphis Center
09:05PM 36.1497 -92.1589 274° West 342 394 36,000  Level Memphis Center
09:06PM 36.1522 -92.2797 272° West 348 400 36,000  Level Memphis Center
09:07PM 36.1567 -92.3956 273° West 348 400 36,000  Level Memphis Center
09:08PM 36.1567 -92.5164 270° West 348 400 36,000  Level Memphis Center
09:09PM 36.1608 -92.6347 273° West 348 400 36,000  Level Memphis Center
09:10PM 36.1647 -92.7581 272° West 348 400 36,000  Level Memphis Center
09:11PM 36.1667 -92.8714 271° West 355 409 36,000  Level Memphis Center
09:12PM 36.1686 -92.9869 271° West 360 414 36,000  Level Memphis Center
09:13PM 36.1722 -93.1028 272° West 353 406 36,000  Level Memphis Center
09:14PM 36.1736 -93.2264 271° West 353 406 36,000  Level Memphis Center
09:15PM 36.1769 -93.3550 272° West 358 412 36,000  Level Memphis Center
09:16PM 36.1781 -93.4758 271° West 364 419 36,000  Level Memphis Center
09:17PM 36.1811 -93.5994 272° West 364 419 36,000 -360 Level Memphis Center
09:18PM 36.1797 -93.7331 269° West 364 419 35,300 -1,080 Descending Memphis Center
09:19PM 36.1825 -93.8592 272° West 364 419 33,900 -1,980 Descending Memphis Center
09:20PM 36.1833 -93.9800 271° West 364 419 31,400 -2,580 Descending Memphis Center
09:21PM 36.1858 -94.1061 271° West 364 419 28,800 -2,580 Descending Memphis Center
09:22PM 36.1878 -94.2425 271° West 375 432 26,300 -2,400 Descending Memphis Center
09:23PM 36.1897 -94.3764 271° West 388 447 24,000 -2,280 Descending Memphis Center
09:24PM 36.1894 -94.5128 270° West 388 447 21,800 -2,220 Descending Memphis Center
09:25PM 36.1914 -94.6389 271° West 383 441 19,600 -1,920 Descending Memphis Center
09:26PM 36.1919 -94.7417 270° West 383 441 18,000 -2,160 Descending Memphis Center
09:28PM 36.1944 -94.9275 271° West 333 383 14,400 -2,460 Descending Kansas City Center
09:29PM 36.1958 -95.0242 271° West 314 361 12,300 -2,340 Descending Kansas City Center
09:29PM 36.1958 -95.0375 270° West 320 368 12,000 -1,560 Descending Kansas City Center
09:30PM 36.1964 -95.1433 270° West 295 339 10,600 -1,380 Descending Kansas City Center
09:30PM 36.1958 -95.1408 105° East 307 353 10,600 -780 Level Kansas City Center
09:31PM 36.1967 -95.2158 271° West 248 285 9,900 -840 Descending Kansas City Center
09:31PM 36.1958 -95.2264 264° West 260 299 9,800 -1,140 Descending Kansas City Center
09:32PM 36.1947 -95.2861 269° West 212 244 8,900 -1,200 Descending Kansas City Center
09:32PM 36.1967 -95.3019 279° West 229 264 8,600 -1,380 Descending Kansas City Center
09:33PM 36.1950 -95.3586 268° West 205 236 7,500 -1,320 Descending Kansas City Center
09:33PM 36.1964 -95.3733 277° West 211 243 7,300 -1,320 Descending Kansas City Center
09:34PM 36.2056 -95.4297 281° West 214 246 6,200 -1,380 Descending Kansas City Center
09:34PM 36.2128 -95.4392 313° West 210 242 5,900 -1,020 Descending Kansas City Center
09:35PM 36.2489 -95.4911 311° West 236 272 5,200 -840 Descending Kansas City Center
09:35PM 36.2561 -95.4994 317° Northwest 227 261 5,100 -600 Descending Kansas City Center
09:35PM 36.2867 -95.5403 313° West 238 274 4,700 -720 Descending Kansas City Center
09:36PM 36.3022 -95.5606 314° West 234 269 4,400 -720 Descending Kansas City Center
09:37PM 36.3364 -95.6036 315° West 244 281 4,000 -420 Descending Kansas City Center
09:37PM 36.3506 -95.6200 317° Northwest 239 275 4,000  Level Kansas City Center
09:38PM 36.3836 -95.6622 314° West 240 276 4,000  Level Kansas City Center
09:38PM 36.3989 -95.6783 320° Northwest 239 275 4,000  Level Kansas City Center
09:39PM 36.4325 -95.7206 315° West 222 255 4,000  Level Kansas City Center
09:39PM 36.4433 -95.7319 320° Northwest 231 266 4,000 -120 Level Kansas City Center
09:40PM 36.4683 -95.7706 309° West 180 207 3,900 -240 Descending Kansas City Center
09:40PM 36.4722 -95.7842 290° West 211 243 3,800 -420 Descending Kansas City Center
09:41PM 36.4667 -95.8228 260° West 144 166 3,500 -300 Descending Kansas City Center
09:41PM 36.4611 -95.8258 204° Southwest 175 201 3,500 -120 Level Kansas City Center
09:42PM 36.4417 -95.8494 224° Southwest 135 155 3,400 -300 Descending Kansas City Center
09:42PM 36.4311 -95.8586 215° Southwest 153 176 3,200 -540 Descending Kansas City Center
09:43PM 36.4036 -95.8700 198° South 154 177 2,900 -540 Descending Kansas City Center
09:43PM 36.3853 -95.8686 177° South 152 175 2,700 -420 Descending Kansas City Center
09:44PM 36.3617 -95.8728 188° South 148 170 2,500 -240 Descending Kansas City Center
09:44PM 36.3442 -95.8719 178° South 148 170 2,500  Level Kansas City Center
09:44PM 36.3283 -95.8744 187° South 147 169 2,500 -240 Level Kansas City Center
09:45PM 36.3042 -95.8742 179° South 147 169 2,300 -540 Descending Kansas City Center
09:45PM 36.2886 -95.8769 188° South 126 145 2,000 -540 Descending Kansas City Center
09:46PM 36.2711 -95.8767 179° South 135 155 1,800 -540 Descending Kansas City Center
09:46PM 36.2553 -95.8789 186° South 115 132 1,500 -600 Descending Kansas City Center
09:47PM 36.2386 -95.8792 181° South 124 143 1,200 -540 Descending Kansas City Center